createdAt,value
2018-04-16T00:01:47.082Z,3.53
2018-04-16T00:07:16.912Z,3.47
2018-04-16T00:09:45.974Z,3.50
2018-04-16T00:15:25.302Z,4.20
2018-04-16T00:23:42.734Z,3.70
2018-04-16T00:26:22.507Z,4.20
2018-04-16T00:35:19.463Z,3.60
2018-04-16T00:38:01.070Z,4.17
2018-04-16T00:40:38.147Z,4.13
2018-04-16T00:43:12.369Z,4.47
2018-04-16T00:45:47.440Z,3.90
2018-04-16T00:48:30.627Z,4.60
2018-04-16T00:51:12.076Z,3.73
2018-04-16T00:53:57.984Z,3.50
2018-04-16T00:56:39.264Z,3.90
2018-04-16T00:59:20.035Z,3.97
2018-04-16T01:01:55.786Z,2.70
2018-04-16T01:04:28.905Z,4.10
2018-04-16T01:07:01.968Z,3.70
2018-04-16T01:09:35.029Z,3.10
2018-04-16T01:12:08.080Z,3.60
2018-04-16T01:14:41.216Z,4.30
2018-04-16T01:17:14.260Z,4.50
2018-04-16T01:19:47.364Z,3.87
2018-04-16T01:22:20.381Z,3.80
2018-04-16T01:24:54.098Z,4.13
2018-04-16T01:27:28.576Z,4.47
2018-04-16T01:30:01.833Z,4.67
2018-04-16T01:32:36.636Z,4.20
2018-04-16T01:35:09.961Z,3.63
2018-04-16T01:37:44.455Z,4.20
2018-04-16T01:40:17.651Z,3.43
2018-04-16T01:42:51.067Z,4.20
2018-04-16T01:45:24.341Z,5.03
2018-04-16T01:47:57.547Z,4.10
2018-04-16T01:50:30.736Z,3.90
2018-04-16T01:53:03.883Z,3.57
2018-04-16T01:55:37.279Z,4.60
2018-04-16T01:58:10.489Z,4.20
2018-04-16T02:00:43.894Z,4.00
2018-04-16T02:03:18.259Z,3.80
2018-04-16T02:05:52.027Z,4.00
2018-04-16T02:08:25.286Z,4.30
2018-04-16T02:11:02.094Z,4.40
2018-04-16T02:13:36.679Z,3.80
2018-04-16T02:16:09.913Z,4.20
2018-04-16T02:18:43.424Z,4.67
2018-04-16T02:21:17.824Z,3.83
2018-04-16T02:23:51.754Z,4.23
2018-04-16T02:26:24.998Z,4.00
2018-04-16T02:28:58.033Z,3.20
2018-04-16T02:31:31.208Z,4.50
2018-04-16T02:34:04.277Z,4.03
2018-04-16T02:36:37.383Z,4.30
2018-04-16T02:39:12.709Z,4.00
2018-04-16T02:41:45.841Z,4.47
2018-04-16T02:44:18.922Z,4.33
2018-04-16T02:46:52.139Z,4.50
2018-04-16T02:49:25.294Z,4.43
2018-04-16T02:51:58.334Z,4.27
2018-04-16T02:54:31.486Z,4.77
2018-04-16T02:57:04.759Z,4.90
2018-04-16T02:59:37.927Z,4.43
2018-04-16T03:02:11.060Z,5.40
2018-04-16T03:04:44.280Z,5.00
2018-04-16T03:07:17.351Z,4.27
2018-04-16T03:09:50.710Z,4.40
2018-04-16T03:12:24.035Z,4.67
2018-04-16T03:14:57.125Z,4.40
2018-04-16T03:17:30.270Z,4.13
2018-04-16T03:20:03.480Z,4.50
2018-04-16T03:22:36.740Z,4.03
2018-04-16T03:25:09.871Z,4.73
2018-04-16T03:27:43.073Z,4.03
2018-04-16T03:30:16.141Z,4.53
2018-04-16T03:32:50.063Z,3.57
2018-04-16T03:35:23.337Z,4.03
2018-04-16T03:37:56.508Z,2.97
2018-04-16T03:43:32.214Z,4.40
2018-04-16T03:46:05.400Z,3.33
2018-04-16T03:48:38.554Z,3.67
2018-04-16T03:51:10.877Z,3.63
2018-04-16T03:53:40.355Z,3.40
2018-04-16T03:56:08.077Z,3.70
2018-04-16T03:58:35.757Z,4.27
2018-04-16T04:01:03.369Z,4.17
2018-04-16T04:03:31.098Z,5.63
2018-04-16T04:05:58.729Z,3.97
2018-04-16T04:08:26.321Z,5.87
2018-04-16T04:10:54.009Z,5.60
2018-04-16T04:13:21.640Z,4.40
2018-04-16T04:15:49.502Z,5.40
2018-04-16T04:18:17.130Z,5.03
2018-04-16T04:20:44.894Z,4.90
2018-04-16T04:23:24.066Z,4.40
2018-04-16T04:26:03.363Z,4.63
2018-04-16T04:28:42.679Z,5.60
2018-04-16T04:31:10.869Z,18.13
2018-04-16T04:33:38.623Z,9.23
2018-04-16T04:36:06.346Z,4.23
2018-04-16T04:38:34.046Z,3.77
2018-04-16T04:41:01.753Z,4.50
2018-04-16T04:43:29.386Z,3.87
2018-04-16T04:45:57.261Z,3.90
2018-04-16T04:48:24.913Z,4.43
2018-04-16T04:50:52.681Z,4.93
2018-04-16T04:53:20.360Z,4.30
2018-04-16T04:55:48.211Z,4.60
2018-04-16T04:58:15.901Z,4.40
2018-04-16T05:00:43.559Z,4.17
2018-04-16T05:03:11.345Z,4.23
2018-04-16T05:05:39.013Z,4.00
2018-04-16T05:08:06.672Z,4.67
2018-04-16T05:10:34.837Z,4.80
2018-04-16T05:13:02.616Z,4.00
2018-04-16T05:15:30.237Z,4.70
2018-04-16T05:17:57.946Z,4.50
2018-04-16T05:20:25.564Z,4.67
2018-04-16T05:22:53.201Z,4.03
2018-04-16T05:25:20.837Z,4.47
2018-04-16T05:27:48.489Z,3.73
2018-04-16T05:30:16.108Z,4.60
2018-04-16T05:32:43.969Z,4.87
2018-04-16T05:35:11.567Z,5.20
2018-04-16T05:37:39.226Z,5.00
2018-04-16T05:40:06.821Z,5.80
2018-04-16T05:42:34.459Z,6.17
2018-04-16T05:45:02.203Z,6.17
2018-04-16T05:47:29.838Z,6.10
2018-04-16T05:49:57.538Z,7.87
2018-04-16T05:52:25.199Z,6.57
2018-04-16T05:54:52.895Z,5.87
2018-04-16T05:57:20.794Z,6.77
2018-04-16T05:59:48.402Z,6.03
2018-04-16T06:02:16.036Z,6.53
2018-04-16T06:04:43.713Z,6.63
2018-04-16T06:07:11.320Z,6.80
2018-04-16T06:09:38.973Z,7.40
2018-04-16T06:12:06.813Z,6.60
2018-04-16T06:14:34.793Z,6.73
2018-04-16T06:17:02.762Z,6.50
2018-04-16T06:19:30.465Z,6.60
2018-04-16T06:21:58.095Z,6.40
2018-04-16T06:24:26.021Z,5.23
2018-04-16T06:26:53.621Z,6.90
2018-04-16T06:29:21.341Z,7.17
2018-04-16T06:31:48.941Z,6.23
2018-04-16T06:34:16.595Z,6.80
2018-04-16T06:36:44.321Z,5.90
2018-04-16T06:39:11.920Z,8.40
2018-04-16T06:41:39.652Z,5.90
2018-04-16T06:44:07.269Z,5.77
2018-04-16T06:46:34.940Z,6.90
2018-04-16T06:49:02.588Z,5.87
2018-04-16T06:51:30.208Z,6.40
2018-04-16T06:53:57.864Z,5.83
2018-04-16T06:56:25.504Z,7.37
2018-04-16T06:58:53.133Z,7.30
2018-04-16T07:01:20.838Z,6.80
2018-04-16T07:03:48.452Z,7.27
2018-04-16T07:06:16.101Z,6.63
2018-04-16T07:08:43.786Z,7.67
2018-04-16T07:11:11.459Z,9.40
2018-04-16T07:13:39.152Z,7.83
2018-04-16T07:16:06.812Z,7.10
2018-04-16T07:18:34.476Z,7.90
2018-04-16T07:21:02.154Z,8.40
2018-04-16T07:23:29.763Z,7.87
2018-04-16T07:25:57.418Z,6.87
2018-04-16T07:28:25.025Z,7.63
2018-04-16T07:30:52.654Z,7.33
2018-04-16T07:33:20.424Z,7.17
2018-04-16T07:35:48.058Z,6.73
2018-04-16T07:38:15.704Z,7.30
2018-04-16T07:40:43.359Z,6.03
2018-04-16T07:43:11.069Z,6.47
2018-04-16T07:45:38.802Z,6.43
2018-04-16T07:48:06.540Z,8.30
2018-04-16T07:50:34.301Z,7.50
2018-04-16T07:53:02.057Z,7.93
2018-04-16T07:55:29.676Z,7.03
2018-04-16T07:57:57.336Z,7.50
2018-04-16T08:00:24.957Z,6.90
2018-04-16T08:02:52.585Z,6.13
2018-04-16T08:05:20.193Z,7.30
2018-04-16T08:07:47.871Z,8.23
2018-04-16T08:10:15.575Z,7.00
2018-04-16T08:12:43.218Z,7.17
2018-04-16T08:15:10.853Z,4.77
2018-04-16T08:17:38.621Z,5.40
2018-04-16T08:20:06.337Z,5.23
2018-04-16T08:22:33.934Z,5.27
2018-04-16T08:25:01.604Z,5.27
2018-04-16T08:27:29.351Z,5.50
2018-04-16T08:29:57.398Z,6.20
2018-04-16T08:32:25.040Z,8.60
2018-04-16T08:34:52.919Z,5.43
2018-04-16T08:37:20.540Z,5.20
2018-04-16T08:39:48.170Z,5.47
2018-04-16T08:42:15.821Z,5.80
2018-04-16T08:44:43.448Z,5.93
2018-04-16T08:47:11.176Z,6.60
2018-04-16T08:49:39.017Z,5.30
2018-04-16T08:52:06.699Z,5.30
2018-04-16T08:54:34.385Z,6.23
2018-04-16T08:57:02.099Z,6.43
2018-04-16T08:59:29.748Z,7.17
2018-04-16T09:01:57.351Z,6.27
2018-04-16T09:04:25.071Z,6.00
2018-04-16T09:06:52.741Z,7.13
2018-04-16T09:09:20.382Z,8.73
2018-04-16T09:11:48.007Z,7.17
2018-04-16T09:14:16.215Z,8.00
2018-04-16T09:16:43.836Z,8.00
2018-04-16T09:19:11.433Z,7.33
2018-04-16T09:21:39.128Z,7.50
2018-04-16T09:24:06.784Z,7.30
2018-04-16T09:26:34.449Z,8.20
2018-04-16T09:29:02.075Z,7.13
2018-04-16T09:31:29.740Z,7.23
2018-04-16T09:33:57.434Z,7.03
2018-04-16T09:36:25.088Z,6.40
2018-04-16T09:38:52.734Z,6.70
2018-04-16T09:41:20.403Z,5.50
2018-04-16T09:43:48.176Z,7.60
2018-04-16T09:46:15.885Z,8.23
2018-04-16T09:48:43.573Z,7.03
2018-04-16T09:51:11.981Z,7.33
2018-04-16T09:53:39.647Z,8.90
2018-04-16T09:56:07.389Z,9.10
2018-04-16T09:58:35.107Z,8.53
2018-04-16T10:01:02.745Z,7.23
2018-04-16T10:03:30.352Z,6.70
2018-04-16T10:05:58.162Z,6.93
2018-04-16T10:08:25.825Z,6.97
2018-04-16T10:10:53.465Z,6.67
2018-04-16T10:13:21.130Z,7.60
2018-04-16T10:15:48.769Z,6.63
2018-04-16T10:18:16.417Z,5.87
2018-04-16T10:20:44.102Z,5.77
2018-04-16T10:23:11.746Z,4.37
2018-04-16T10:25:39.404Z,3.83
2018-04-16T10:28:07.001Z,7.70
2018-04-16T10:30:34.646Z,4.53
2018-04-16T10:33:02.398Z,4.60
2018-04-16T10:35:30.005Z,3.80
2018-04-16T10:37:57.716Z,3.53
2018-04-16T10:40:25.302Z,4.40
2018-04-16T10:42:52.952Z,4.90
2018-04-16T10:45:20.633Z,5.13
2018-04-16T10:47:48.301Z,5.10
2018-04-16T10:50:15.986Z,5.77
2018-04-16T10:52:43.730Z,4.13
2018-04-16T10:55:11.371Z,4.33
2018-04-16T10:57:39.043Z,4.60
2018-04-16T11:00:06.645Z,3.50
2018-04-16T11:02:34.312Z,4.23
2018-04-16T11:05:01.898Z,4.47
2018-04-16T11:07:29.528Z,4.07
2018-04-16T11:09:57.132Z,4.37
2018-04-16T11:12:24.762Z,3.00
2018-04-16T11:14:52.390Z,3.70
2018-04-16T11:17:20.057Z,3.40
2018-04-16T11:19:47.681Z,3.93
2018-04-16T11:22:15.316Z,4.03
2018-04-16T11:24:42.953Z,3.70
2018-04-16T11:27:10.570Z,4.00
2018-04-16T11:29:38.261Z,3.63
2018-04-16T11:32:05.855Z,4.27
2018-04-16T11:34:33.596Z,2.83
2018-04-16T11:37:01.222Z,4.00
2018-04-16T11:39:28.836Z,4.30
2018-04-16T11:41:56.461Z,4.13
2018-04-16T11:44:24.203Z,4.87
2018-04-16T11:46:53.472Z,3.60
2018-04-16T11:49:22.259Z,3.57
2018-04-16T11:51:51.462Z,2.87
2018-04-16T11:54:22.384Z,4.40
2018-04-16T11:59:41.787Z,4.10
2018-04-16T12:02:09.788Z,4.17
2018-04-16T12:04:37.488Z,3.97
2018-04-16T12:10:16.381Z,5.30
2018-04-16T12:12:50.951Z,3.33
2018-04-16T12:15:18.612Z,4.17
2018-04-16T12:17:47.959Z,4.80
2018-04-16T12:24:28.112Z,4.63
2018-04-16T12:26:58.442Z,3.30
2018-04-16T12:29:40.419Z,4.13
2018-04-16T12:32:09.305Z,4.13
2018-04-16T12:34:45.068Z,3.03
2018-04-16T12:37:22.396Z,3.10
2018-04-16T12:39:50.054Z,3.40
2018-04-16T12:42:17.719Z,3.80
2018-04-16T12:45:02.246Z,3.63
2018-04-16T12:50:18.185Z,3.30
2018-04-16T12:53:02.090Z,3.67
2018-04-16T13:01:54.018Z,3.53
2018-04-16T13:04:21.786Z,3.50
2018-04-16T13:06:50.602Z,3.03
2018-04-16T13:09:22.785Z,4.43
2018-04-16T13:11:50.633Z,3.67
2018-04-16T13:14:24.586Z,3.40
2018-04-16T13:16:56.637Z,3.40
2018-04-16T13:19:25.301Z,3.70
2018-04-16T13:21:53.572Z,3.17
2018-04-16T13:24:21.416Z,3.00
2018-04-16T13:26:50.683Z,3.13
2018-04-16T13:29:20.046Z,3.43
2018-04-16T13:31:47.987Z,2.80
2018-04-16T13:34:16.401Z,3.30
2018-04-16T13:36:44.490Z,3.93
2018-04-16T13:39:12.598Z,2.90
2018-04-16T13:41:40.425Z,3.07
2018-04-16T13:44:09.292Z,2.77
2018-04-16T13:46:37.377Z,3.23
2018-04-16T13:49:13.369Z,3.30
2018-04-16T13:51:51.783Z,2.63
2018-04-16T13:54:25.522Z,2.80
2018-04-16T13:57:01.749Z,2.73
2018-04-16T13:59:40.579Z,2.17
2018-04-16T14:02:08.680Z,2.13
2018-04-16T14:07:40.731Z,2.83
2018-04-16T14:10:08.923Z,3.30
2018-04-16T14:12:36.981Z,2.70
2018-04-16T14:15:04.777Z,2.37
2018-04-16T14:17:32.533Z,3.30
2018-04-16T14:20:03.443Z,2.07
2018-04-16T14:22:31.338Z,1.93
2018-04-16T14:25:00.731Z,1.87
2018-04-16T14:27:28.496Z,3.80
2018-04-16T14:29:56.848Z,2.33
2018-04-16T14:32:25.231Z,2.20
2018-04-16T14:34:53.005Z,2.20
2018-04-16T14:37:20.613Z,2.37
2018-04-16T14:39:48.492Z,2.03
2018-04-16T14:42:21.337Z,4.47
2018-04-16T14:44:49.098Z,3.03
2018-04-16T14:47:16.732Z,2.80
2018-04-16T14:49:44.504Z,2.03
2018-04-16T14:52:12.103Z,2.70
2018-04-16T14:54:39.758Z,2.20
2018-04-16T14:57:07.382Z,1.40
2018-04-16T14:59:35.016Z,2.33
2018-04-16T15:02:02.698Z,4.10
2018-04-16T15:04:30.364Z,1.90
2018-04-16T15:06:58.036Z,3.43
2018-04-16T15:09:25.650Z,1.43
2018-04-16T15:11:53.320Z,2.00
2018-04-16T15:14:20.936Z,1.50
2018-04-16T15:16:48.580Z,1.30
2018-04-16T15:19:16.201Z,1.50
2018-04-16T15:21:43.837Z,1.60
2018-04-16T15:24:11.445Z,1.47
2018-04-16T15:26:39.078Z,1.80
2018-04-16T15:29:06.724Z,1.80
2018-04-16T15:31:34.380Z,1.80
2018-04-16T15:34:01.999Z,1.77
2018-04-16T15:36:29.668Z,1.70
2018-04-16T15:38:57.461Z,4.97
2018-04-16T15:41:25.046Z,3.67
2018-04-16T15:43:52.717Z,1.23
2018-04-16T15:46:20.364Z,1.83
2018-04-16T15:48:48.064Z,2.33
2018-04-16T15:51:15.660Z,2.20
2018-04-16T15:53:43.312Z,1.63
2018-04-16T15:56:10.914Z,1.67
2018-04-16T15:58:38.581Z,1.40
2018-04-16T16:01:06.189Z,1.83
2018-04-16T16:03:33.838Z,1.67
2018-04-16T16:06:01.477Z,1.40
2018-04-16T16:08:29.183Z,1.27
2018-04-16T16:10:56.805Z,1.80
2018-04-16T16:13:24.457Z,1.50
2018-04-16T16:15:52.113Z,1.60
2018-04-16T16:18:19.867Z,2.23
2018-04-16T16:20:47.564Z,1.50
2018-04-16T16:23:15.119Z,2.40
2018-04-16T16:25:42.757Z,2.07
2018-04-16T16:28:10.362Z,2.03
2018-04-16T16:30:38.021Z,2.70
2018-04-16T16:33:05.634Z,1.53
2018-04-16T16:35:33.312Z,2.00
2018-04-16T16:38:00.921Z,1.63
2018-04-16T16:40:28.596Z,1.63
2018-04-16T16:42:56.258Z,1.80
2018-04-16T16:45:23.900Z,1.70
2018-04-16T16:47:51.504Z,1.97
2018-04-16T16:50:19.177Z,1.53
2018-04-16T16:52:46.774Z,2.10
2018-04-16T16:55:14.425Z,1.77
2018-04-16T16:57:42.011Z,1.97
2018-04-16T17:00:09.680Z,1.50
2018-04-16T17:02:37.281Z,1.97
2018-04-16T17:05:05.099Z,1.50
2018-04-16T17:07:32.715Z,1.70
2018-04-16T17:10:00.363Z,1.43
2018-04-16T17:12:28.021Z,1.50
2018-04-16T17:14:55.653Z,3.27
2018-04-16T17:17:23.300Z,1.63
2018-04-16T17:19:50.931Z,1.50
2018-04-16T17:22:18.606Z,2.20
2018-04-16T17:24:46.217Z,2.60
2018-04-16T17:27:13.864Z,2.37
2018-04-16T17:29:41.699Z,2.70
2018-04-16T17:32:09.422Z,3.30
2018-04-16T17:34:37.025Z,2.37
2018-04-16T17:37:04.717Z,2.43
2018-04-16T17:39:32.356Z,1.87
2018-04-16T17:42:00.064Z,1.83
2018-04-16T17:44:27.698Z,7.33
2018-04-16T17:46:55.348Z,2.57
2018-04-16T17:49:22.971Z,2.83
2018-04-16T17:51:50.647Z,2.77
2018-04-16T17:54:18.290Z,2.43
2018-04-16T17:56:45.950Z,3.37
2018-04-16T17:59:13.604Z,2.37
2018-04-16T18:01:41.250Z,3.30
2018-04-16T18:04:08.957Z,2.57
2018-04-16T18:06:36.713Z,1.97
2018-04-16T18:09:04.522Z,2.27
2018-04-16T18:11:32.124Z,2.30
2018-04-16T18:13:59.804Z,2.30
2018-04-16T18:16:27.471Z,2.30
2018-04-16T18:18:55.117Z,1.90
2018-04-16T18:21:22.793Z,2.00
2018-04-16T18:23:50.465Z,2.13
2018-04-16T18:26:18.111Z,2.70
2018-04-16T18:28:45.813Z,1.80
2018-04-16T18:31:13.440Z,2.37
2018-04-16T18:33:41.123Z,2.37
2018-04-16T18:36:08.728Z,1.80
2018-04-16T18:38:36.394Z,2.17
2018-04-16T18:41:04.070Z,2.40
2018-04-16T18:43:31.734Z,3.33
2018-04-16T18:45:59.340Z,2.40
2018-04-16T18:48:26.959Z,2.57
2018-04-16T18:50:54.600Z,2.60
2018-04-16T18:53:22.213Z,2.37
2018-04-16T18:55:49.888Z,2.70
2018-04-16T18:58:17.515Z,22.33
2018-04-16T19:00:45.168Z,16.63
2018-04-16T19:03:13.780Z,4.20
2018-04-16T19:05:41.520Z,2.67
2018-04-16T19:08:09.107Z,2.57
2018-04-16T19:10:36.778Z,1.80
2018-04-16T19:13:04.406Z,2.43
2018-04-16T19:15:32.055Z,1.83
2018-04-16T19:17:59.741Z,3.80
2018-04-16T19:20:32.985Z,2.50
2018-04-16T19:23:01.196Z,4.40
2018-04-16T19:25:28.887Z,2.67
2018-04-16T19:28:02.074Z,5.10
2018-04-16T19:30:31.591Z,3.20
2018-04-16T19:33:04.873Z,2.80
2018-04-16T19:35:32.742Z,6.20
2018-04-16T19:38:00.471Z,4.20
2018-04-16T19:40:28.227Z,4.43
2018-04-16T19:42:55.979Z,4.13
2018-04-16T19:45:23.621Z,3.97
2018-04-16T19:47:51.249Z,3.80
2018-04-16T19:50:18.902Z,4.17
2018-04-16T19:52:46.540Z,3.87
2018-04-16T19:55:14.176Z,3.90
2018-04-16T19:57:47.376Z,2.70
2018-04-16T20:00:15.053Z,2.80
2018-04-16T20:02:48.139Z,3.17
2018-04-16T20:05:15.750Z,3.17
2018-04-16T20:07:43.416Z,3.10
2018-04-16T20:10:11.070Z,3.63
2018-04-16T20:12:38.736Z,3.30
2018-04-16T20:15:06.341Z,3.73
2018-04-16T20:17:33.983Z,3.13
2018-04-16T20:20:01.600Z,4.23
2018-04-16T20:22:29.249Z,3.60
2018-04-16T20:24:56.920Z,3.53
2018-04-16T20:27:24.598Z,3.00
2018-04-16T20:29:52.237Z,4.20
2018-04-16T20:32:19.878Z,5.77
2018-04-16T20:34:47.506Z,3.50
2018-04-16T20:37:15.199Z,3.90
2018-04-16T20:39:42.823Z,3.90
2018-04-16T20:42:10.481Z,3.60
2018-04-16T20:44:38.145Z,3.80
2018-04-16T20:47:05.793Z,2.60
2018-04-16T20:49:33.439Z,2.83
2018-04-16T20:52:01.119Z,2.17
2018-04-16T20:54:28.750Z,4.47
2018-04-16T20:56:56.445Z,3.30
2018-04-16T20:59:24.132Z,3.53
2018-04-16T21:01:51.903Z,3.83
2018-04-16T21:47:36.262Z,4.17
2018-04-16T21:50:15.248Z,4.93
2018-04-16T21:52:48.430Z,4.77
2018-04-16T21:55:44.416Z,5.30
2018-04-16T22:04:20.453Z,5.50
2018-04-16T22:12:37.300Z,5.60
2018-04-16T22:21:03.947Z,5.60
2018-04-16T22:27:09.035Z,5.53
2018-04-16T22:32:27.513Z,5.60
2018-04-16T22:37:44.282Z,6.47
2018-04-16T22:40:24.585Z,5.83
2018-04-16T22:51:56.028Z,5.67
2018-04-16T22:54:49.680Z,5.80
2018-04-16T22:57:37.641Z,6.40
2018-04-16T23:00:20.726Z,6.30
2018-04-16T23:05:38.164Z,6.70
2018-04-16T23:08:19.347Z,6.97
2018-04-16T23:10:55.402Z,6.17
2018-04-16T23:13:32.657Z,6.47
2018-04-16T23:16:17.348Z,7.50
2018-04-16T23:21:44.563Z,6.23
2018-04-16T23:24:17.224Z,5.70
2018-04-16T23:26:58.079Z,6.67
2018-04-16T23:35:52.860Z,6.50
2018-04-16T23:38:27.448Z,6.63
2018-04-16T23:41:05.358Z,8.27
2018-04-16T23:52:55.683Z,5.50
2018-04-16T23:55:27.835Z,5.83
